sensor_id;sensor_type;location;lat;lon;timestamp;P1;durP1;ratioP1;P2;durP2;ratioP2
25155;SDS011;21913;52.456;13.634;2023-04-03T00:02:33;1.83;;;1.02;;
25155;SDS011;21913;52.456;13.634;2023-04-03T00:07:34;2.10;;;1.13;;
25155;SDS011;21913;52.456;13.634;2023-04-03T00:12:36;2.50;;;1.10;;
25155;SDS011;21913;52.456;13.634;2023-04-03T00:17:37;3.22;;;1.15;;
25155;SDS011;21913;52.456;13.634;2023-04-03T00:22:39;2.10;;;1.10;;
25155;SDS011;21913;52.456;13.634;2023-04-03T00:27:40;3.55;;;1.30;;
25155;SDS011;21913;52.456;13.634;2023-04-03T00:32:42;2.40;;;1.15;;
25155;SDS011;21913;52.456;13.634;2023-04-03T00:37:43;2.17;;;1.20;;
25155;SDS011;21913;52.456;13.634;2023-04-03T00:42:46;2.10;;;0.95;;
25155;SDS011;21913;52.456;13.634;2023-04-03T00:47:49;2.00;;;1.10;;
25155;SDS011;21913;52.456;13.634;2023-04-03T00:52:51;2.30;;;0.90;;
25155;SDS011;21913;52.456;13.634;2023-04-03T00:57:53;1.98;;;1.10;;
25155;SDS011;21913;52.456;13.634;2023-04-03T01:02:57;4.35;;;1.27;;
25155;SDS011;21913;52.456;13.634;2023-04-03T01:08:00;2.35;;;0.88;;
25155;SDS011;21913;52.456;13.634;2023-04-03T01:13:02;2.45;;;0.70;;
25155;SDS011;21913;52.456;13.634;2023-04-03T01:18:24;1.58;;;0.98;;
25155;SDS011;21913;52.456;13.634;2023-04-03T01:23:35;2.92;;;1.08;;
25155;SDS011;21913;52.456;13.634;2023-04-03T01:28:53;2.05;;;1.02;;
25155;SDS011;21913;52.456;13.634;2023-04-03T01:33:56;2.58;;;1.00;;
25155;SDS011;21913;52.456;13.634;2023-04-03T01:38:59;1.88;;;0.85;;
25155;SDS011;21913;52.456;13.634;2023-04-03T01:44:01;2.20;;;1.00;;
25155;SDS011;21913;52.456;13.634;2023-04-03T01:49:03;2.53;;;1.17;;
25155;SDS011;21913;52.456;13.634;2023-04-03T01:54:05;1.73;;;0.93;;
25155;SDS011;21913;52.456;13.634;2023-04-03T01:59:06;1.77;;;0.90;;
25155;SDS011;21913;52.456;13.634;2023-04-03T02:04:08;1.85;;;1.02;;
25155;SDS011;21913;52.456;13.634;2023-04-03T02:09:10;2.67;;;1.00;;
25155;SDS011;21913;52.456;13.634;2023-04-03T02:14:12;2.08;;;1.05;;
25155;SDS011;21913;52.456;13.634;2023-04-03T02:19:13;1.60;;;0.90;;
25155;SDS011;21913;52.456;13.634;2023-04-03T02:24:15;1.33;;;0.80;;
25155;SDS011;21913;52.456;13.634;2023-04-03T02:29:19;2.28;;;1.05;;
25155;SDS011;21913;52.456;13.634;2023-04-03T02:34:20;3.72;;;1.20;;
25155;SDS011;21913;52.456;13.634;2023-04-03T02:39:23;1.80;;;0.88;;
25155;SDS011;21913;52.456;13.634;2023-04-03T02:44:24;1.30;;;1.00;;
25155;SDS011;21913;52.456;13.634;2023-04-03T02:49:27;2.22;;;1.10;;
25155;SDS011;21913;52.456;13.634;2023-04-03T02:54:28;2.85;;;1.08;;
25155;SDS011;21913;52.456;13.634;2023-04-03T02:59:32;1.77;;;1.02;;
25155;SDS011;21913;52.456;13.634;2023-04-03T03:04:34;2.00;;;1.08;;
25155;SDS011;21913;52.456;13.634;2023-04-03T03:09:36;1.58;;;1.02;;
25155;SDS011;21913;52.456;13.634;2023-04-03T03:14:38;1.70;;;1.02;;
25155;SDS011;21913;52.456;13.634;2023-04-03T03:19:40;1.73;;;0.90;;
25155;SDS011;21913;52.456;13.634;2023-04-03T03:24:41;2.08;;;0.98;;
25155;SDS011;21913;52.456;13.634;2023-04-03T03:29:43;2.00;;;0.90;;
25155;SDS011;21913;52.456;13.634;2023-04-03T03:34:46;2.13;;;1.00;;
25155;SDS011;21913;52.456;13.634;2023-04-03T03:39:47;2.20;;;1.20;;
25155;SDS011;21913;52.456;13.634;2023-04-03T03:44:49;2.85;;;0.95;;
25155;SDS011;21913;52.456;13.634;2023-04-03T03:49:50;2.95;;;1.20;;
25155;SDS011;21913;52.456;13.634;2023-04-03T03:54:52;2.13;;;0.95;;
25155;SDS011;21913;52.456;13.634;2023-04-03T03:59:55;2.20;;;1.02;;
25155;SDS011;21913;52.456;13.634;2023-04-03T04:04:57;3.90;;;1.20;;
25155;SDS011;21913;52.456;13.634;2023-04-03T04:09:58;1.95;;;0.98;;
25155;SDS011;21913;52.456;13.634;2023-04-03T04:15:01;2.22;;;1.10;;
25155;SDS011;21913;52.456;13.634;2023-04-03T04:20:03;1.70;;;0.90;;
25155;SDS011;21913;52.456;13.634;2023-04-03T04:25:06;2.72;;;1.10;;
25155;SDS011;21913;52.456;13.634;2023-04-03T04:30:09;2.70;;;1.27;;
25155;SDS011;21913;52.456;13.634;2023-04-03T04:35:12;2.60;;;1.00;;
25155;SDS011;21913;52.456;13.634;2023-04-03T04:40:17;2.10;;;1.10;;
25155;SDS011;21913;52.456;13.634;2023-04-03T04:45:19;2.33;;;1.10;;
25155;SDS011;21913;52.456;13.634;2023-04-03T04:50:21;2.03;;;1.00;;
25155;SDS011;21913;52.456;13.634;2023-04-03T04:55:24;1.40;;;0.90;;
25155;SDS011;21913;52.456;13.634;2023-04-03T05:00:25;2.40;;;1.30;;
25155;SDS011;21913;52.456;13.634;2023-04-03T05:05:28;2.35;;;0.98;;
25155;SDS011;21913;52.456;13.634;2023-04-03T05:10:30;2.03;;;1.00;;
25155;SDS011;21913;52.456;13.634;2023-04-03T05:15:32;2.80;;;1.20;;
25155;SDS011;21913;52.456;13.634;2023-04-03T05:20:34;3.13;;;1.30;;
25155;SDS011;21913;52.456;13.634;2023-04-03T05:25:39;2.83;;;1.25;;
25155;SDS011;21913;52.456;13.634;2023-04-03T05:30:42;2.72;;;1.25;;
25155;SDS011;21913;52.456;13.634;2023-04-03T05:35:45;2.42;;;1.00;;
25155;SDS011;21913;52.456;13.634;2023-04-03T05:40:53;3.03;;;1.20;;
25155;SDS011;21913;52.456;13.634;2023-04-03T05:45:54;1.88;;;0.95;;
25155;SDS011;21913;52.456;13.634;2023-04-03T05:50:59;1.98;;;1.20;;
25155;SDS011;21913;52.456;13.634;2023-04-03T05:56:01;3.03;;;1.20;;
25155;SDS011;21913;52.456;13.634;2023-04-03T06:01:06;2.72;;;1.42;;
25155;SDS011;21913;52.456;13.634;2023-04-03T06:06:10;2.13;;;1.10;;
25155;SDS011;21913;52.456;13.634;2023-04-03T06:11:14;2.33;;;1.02;;
25155;SDS011;21913;52.456;13.634;2023-04-03T06:16:15;2.05;;;1.00;;
25155;SDS011;21913;52.456;13.634;2023-04-03T06:21:18;2.00;;;0.90;;
25155;SDS011;21913;52.456;13.634;2023-04-03T06:26:20;2.05;;;1.10;;
25155;SDS011;21913;52.456;13.634;2023-04-03T06:31:21;2.45;;;1.10;;
25155;SDS011;21913;52.456;13.634;2023-04-03T06:36:23;2.10;;;1.17;;
25155;SDS011;21913;52.456;13.634;2023-04-03T06:41:25;2.80;;;1.10;;
25155;SDS011;21913;52.456;13.634;2023-04-03T06:46:26;2.75;;;1.30;;
25155;SDS011;21913;52.456;13.634;2023-04-03T06:51:28;2.78;;;1.10;;
25155;SDS011;21913;52.456;13.634;2023-04-03T06:56:30;4.10;;;1.50;;
25155;SDS011;21913;52.456;13.634;2023-04-03T07:01:32;3.80;;;1.70;;
25155;SDS011;21913;52.456;13.634;2023-04-03T07:06:34;6.93;;;1.90;;
25155;SDS011;21913;52.456;13.634;2023-04-03T07:11:36;5.43;;;1.55;;
25155;SDS011;21913;52.456;13.634;2023-04-03T07:16:37;4.50;;;1.60;;
25155;SDS011;21913;52.456;13.634;2023-04-03T07:21:40;3.97;;;1.63;;
25155;SDS011;21913;52.456;13.634;2023-04-03T07:26:41;2.90;;;1.45;;
25155;SDS011;21913;52.456;13.634;2023-04-03T07:31:43;4.63;;;1.63;;
25155;SDS011;21913;52.456;13.634;2023-04-03T07:36:44;3.45;;;1.40;;
25155;SDS011;21913;52.456;13.634;2023-04-03T07:41:46;3.55;;;1.55;;
25155;SDS011;21913;52.456;13.634;2023-04-03T07:46:47;3.83;;;1.50;;
25155;SDS011;21913;52.456;13.634;2023-04-03T07:51:49;3.72;;;1.30;;
25155;SDS011;21913;52.456;13.634;2023-04-03T07:56:51;3.67;;;1.25;;
25155;SDS011;21913;52.456;13.634;2023-04-03T08:01:52;20.48;;;2.60;;
25155;SDS011;21913;52.456;13.634;2023-04-03T08:06:53;33.65;;;3.05;;
25155;SDS011;21913;52.456;13.634;2023-04-03T08:11:55;14.80;;;2.17;;
25155;SDS011;21913;52.456;13.634;2023-04-03T08:16:56;27.08;;;3.03;;
25155;SDS011;21913;52.456;13.634;2023-04-03T08:21:58;16.10;;;2.55;;
25155;SDS011;21913;52.456;13.634;2023-04-03T08:27:00;16.38;;;2.80;;
25155;SDS011;21913;52.456;13.634;2023-04-03T08:32:02;13.52;;;2.40;;
25155;SDS011;21913;52.456;13.634;2023-04-03T08:37:03;14.13;;;2.42;;
25155;SDS011;21913;52.456;13.634;2023-04-03T08:42:06;14.30;;;2.20;;
25155;SDS011;21913;52.456;13.634;2023-04-03T08:58:09;17.17;;;2.30;;
25155;SDS011;21913;52.456;13.634;2023-04-03T09:03:13;9.45;;;2.05;;
25155;SDS011;21913;52.456;13.634;2023-04-03T09:18:48;8.00;;;1.88;;
25155;SDS011;21913;52.456;13.634;2023-04-03T09:23:59;9.57;;;2.10;;
25155;SDS011;21913;52.456;13.634;2023-04-03T09:29:07;7.53;;;1.58;;
25155;SDS011;21913;52.456;13.634;2023-04-03T09:34:12;8.80;;;1.70;;
25155;SDS011;21913;52.456;13.634;2023-04-03T09:39:22;8.98;;;1.73;;
25155;SDS011;21913;52.456;13.634;2023-04-03T09:44:33;9.10;;;2.03;;
25155;SDS011;21913;52.456;13.634;2023-04-03T09:49:36;4.93;;;1.55;;
25155;SDS011;21913;52.456;13.634;2023-04-03T09:54:37;6.90;;;1.85;;
25155;SDS011;21913;52.456;13.634;2023-04-03T09:59:41;9.48;;;1.85;;
25155;SDS011;21913;52.456;13.634;2023-04-03T10:04:45;6.57;;;1.60;;
25155;SDS011;21913;52.456;13.634;2023-04-03T10:09:54;5.85;;;1.50;;
25155;SDS011;21913;52.456;13.634;2023-04-03T10:15:00;8.03;;;1.40;;
25155;SDS011;21913;52.456;13.634;2023-04-03T10:20:07;5.50;;;1.50;;
25155;SDS011;21913;52.456;13.634;2023-04-03T10:40:59;3.33;;;1.40;;
25155;SDS011;21913;52.456;13.634;2023-04-03T10:46:13;4.13;;;1.20;;
25155;SDS011;21913;52.456;13.634;2023-04-03T10:51:34;4.30;;;1.33;;
25155;SDS011;21913;52.456;13.634;2023-04-03T10:57:17;3.67;;;1.23;;
25155;SDS011;21913;52.456;13.634;2023-04-03T11:02:32;4.13;;;0.98;;
25155;SDS011;21913;52.456;13.634;2023-04-03T11:07:39;4.07;;;1.23;;
25155;SDS011;21913;52.456;13.634;2023-04-03T11:12:46;4.10;;;1.13;;
25155;SDS011;21913;52.456;13.634;2023-04-03T11:17:55;3.83;;;1.15;;
25155;SDS011;21913;52.456;13.634;2023-04-03T11:23:35;7.13;;;1.30;;
25155;SDS011;21913;52.456;13.634;2023-04-03T11:28:46;2.33;;;1.00;;
25155;SDS011;21913;52.456;13.634;2023-04-03T11:39:33;3.95;;;1.08;;
25155;SDS011;21913;52.456;13.634;2023-04-03T11:44:37;4.50;;;1.40;;
25155;SDS011;21913;52.456;13.634;2023-04-03T11:49:59;6.68;;;1.13;;
25155;SDS011;21913;52.456;13.634;2023-04-03T11:55:02;17.10;;;1.73;;
25155;SDS011;21913;52.456;13.634;2023-04-03T12:00:45;18.83;;;2.00;;
25155;SDS011;21913;52.456;13.634;2023-04-03T12:05:44;6.50;;;1.50;;
25155;SDS011;21913;52.456;13.634;2023-04-03T12:11:13;4.10;;;1.10;;
25155;SDS011;21913;52.456;13.634;2023-04-03T12:26:39;9.10;;;1.38;;
25155;SDS011;21913;52.456;13.634;2023-04-03T12:31:54;6.28;;;1.52;;
25155;SDS011;21913;52.456;13.634;2023-04-03T12:42:03;5.82;;;1.70;;
25155;SDS011;21913;52.456;13.634;2023-04-03T12:52:42;3.58;;;1.30;;
25155;SDS011;21913;52.456;13.634;2023-04-03T12:57:48;5.55;;;1.20;;
25155;SDS011;21913;52.456;13.634;2023-04-03T13:02:50;3.30;;;1.13;;
25155;SDS011;21913;52.456;13.634;2023-04-03T13:08:13;2.90;;;0.80;;
25155;SDS011;21913;52.456;13.634;2023-04-03T13:13:14;3.97;;;1.15;;
25155;SDS011;21913;52.456;13.634;2023-04-03T13:18:33;4.85;;;1.20;;
25155;SDS011;21913;52.456;13.634;2023-04-03T13:23:36;5.97;;;1.40;;
25155;SDS011;21913;52.456;13.634;2023-04-03T13:28:41;4.82;;;1.00;;
25155;SDS011;21913;52.456;13.634;2023-04-03T13:54:37;5.93;;;0.90;;
25155;SDS011;21913;52.456;13.634;2023-04-03T13:59:40;6.75;;;1.35;;
25155;SDS011;21913;52.456;13.634;2023-04-03T14:04:47;6.38;;;1.42;;
25155;SDS011;21913;52.456;13.634;2023-04-03T14:09:54;5.53;;;1.40;;
25155;SDS011;21913;52.456;13.634;2023-04-03T14:14:56;4.72;;;1.20;;
25155;SDS011;21913;52.456;13.634;2023-04-03T14:19:58;4.07;;;1.38;;
25155;SDS011;21913;52.456;13.634;2023-04-03T14:25:00;4.32;;;1.10;;
25155;SDS011;21913;52.456;13.634;2023-04-03T14:30:02;6.28;;;1.25;;
25155;SDS011;21913;52.456;13.634;2023-04-03T14:35:05;6.57;;;1.30;;
25155;SDS011;21913;52.456;13.634;2023-04-03T14:40:07;4.18;;;1.10;;
25155;SDS011;21913;52.456;13.634;2023-04-03T14:45:11;3.22;;;1.05;;
25155;SDS011;21913;52.456;13.634;2023-04-03T14:50:15;5.32;;;1.30;;
25155;SDS011;21913;52.456;13.634;2023-04-03T14:55:20;4.18;;;1.08;;
25155;SDS011;21913;52.456;13.634;2023-04-03T15:00:23;6.78;;;1.38;;
25155;SDS011;21913;52.456;13.634;2023-04-03T15:05:25;3.45;;;1.08;;
25155;SDS011;21913;52.456;13.634;2023-04-03T15:10:27;3.90;;;1.10;;
25155;SDS011;21913;52.456;13.634;2023-04-03T15:15:30;2.63;;;1.02;;
25155;SDS011;21913;52.456;13.634;2023-04-03T15:20:34;2.55;;;0.95;;
25155;SDS011;21913;52.456;13.634;2023-04-03T15:25:36;6.90;;;1.35;;
25155;SDS011;21913;52.456;13.634;2023-04-03T15:30:37;7.85;;;1.17;;
25155;SDS011;21913;52.456;13.634;2023-04-03T15:35:40;8.02;;;0.93;;
25155;SDS011;21913;52.456;13.634;2023-04-03T15:40:42;8.02;;;1.35;;
25155;SDS011;21913;52.456;13.634;2023-04-03T15:45:44;14.15;;;1.75;;
25155;SDS011;21913;52.456;13.634;2023-04-03T15:50:46;14.55;;;1.75;;
25155;SDS011;21913;52.456;13.634;2023-04-03T15:55:47;15.75;;;1.50;;
25155;SDS011;21913;52.456;13.634;2023-04-03T16:00:49;11.65;;;2.10;;
25155;SDS011;21913;52.456;13.634;2023-04-03T16:05:50;10.65;;;1.48;;
25155;SDS011;21913;52.456;13.634;2023-04-03T16:10:52;8.23;;;1.58;;
25155;SDS011;21913;52.456;13.634;2023-04-03T16:15:54;7.57;;;1.50;;
25155;SDS011;21913;52.456;13.634;2023-04-03T16:20:56;7.97;;;1.45;;
25155;SDS011;21913;52.456;13.634;2023-04-03T16:25:58;6.72;;;1.25;;
25155;SDS011;21913;52.456;13.634;2023-04-03T16:30:59;10.45;;;1.40;;
25155;SDS011;21913;52.456;13.634;2023-04-03T16:36:05;6.47;;;1.40;;
25155;SDS011;21913;52.456;13.634;2023-04-03T16:41:06;12.18;;;1.55;;
25155;SDS011;21913;52.456;13.634;2023-04-03T16:46:08;8.75;;;1.40;;
25155;SDS011;21913;52.456;13.634;2023-04-03T16:51:09;5.47;;;1.40;;
25155;SDS011;21913;52.456;13.634;2023-04-03T16:56:12;9.38;;;1.10;;
25155;SDS011;21913;52.456;13.634;2023-04-03T17:01:16;10.23;;;1.50;;
25155;SDS011;21913;52.456;13.634;2023-04-03T17:06:20;7.00;;;1.38;;
25155;SDS011;21913;52.456;13.634;2023-04-03T17:11:22;4.78;;;1.20;;
25155;SDS011;21913;52.456;13.634;2023-04-03T17:16:24;4.88;;;0.98;;
25155;SDS011;21913;52.456;13.634;2023-04-03T17:21:26;6.35;;;1.10;;
25155;SDS011;21913;52.456;13.634;2023-04-03T17:26:28;8.45;;;1.20;;
25155;SDS011;21913;52.456;13.634;2023-04-03T17:31:30;4.25;;;1.23;;
25155;SDS011;21913;52.456;13.634;2023-04-03T17:36:32;3.90;;;1.02;;
25155;SDS011;21913;52.456;13.634;2023-04-03T17:41:34;4.55;;;1.10;;
25155;SDS011;21913;52.456;13.634;2023-04-03T17:46:35;5.82;;;1.30;;
25155;SDS011;21913;52.456;13.634;2023-04-03T17:51:37;6.38;;;1.30;;
25155;SDS011;21913;52.456;13.634;2023-04-03T17:56:38;8.20;;;1.10;;
25155;SDS011;21913;52.456;13.634;2023-04-03T18:01:41;3.20;;;1.10;;
25155;SDS011;21913;52.456;13.634;2023-04-03T18:06:45;3.58;;;1.17;;
25155;SDS011;21913;52.456;13.634;2023-04-03T18:11:48;4.63;;;1.15;;
25155;SDS011;21913;52.456;13.634;2023-04-03T18:16:50;2.28;;;0.80;;
25155;SDS011;21913;52.456;13.634;2023-04-03T18:21:54;8.18;;;1.38;;
25155;SDS011;21913;52.456;13.634;2023-04-03T18:26:58;2.30;;;1.08;;
25155;SDS011;21913;52.456;13.634;2023-04-03T18:32:02;4.47;;;1.10;;
25155;SDS011;21913;52.456;13.634;2023-04-03T18:37:04;3.13;;;1.10;;
25155;SDS011;21913;52.456;13.634;2023-04-03T18:42:16;8.82;;;1.20;;
25155;SDS011;21913;52.456;13.634;2023-04-03T18:47:21;2.22;;;1.00;;
25155;SDS011;21913;52.456;13.634;2023-04-03T18:52:23;2.78;;;1.00;;
25155;SDS011;21913;52.456;13.634;2023-04-03T18:57:24;2.58;;;0.90;;
25155;SDS011;21913;52.456;13.634;2023-04-03T19:02:26;3.88;;;0.82;;
25155;SDS011;21913;52.456;13.634;2023-04-03T19:07:28;1.67;;;0.85;;
25155;SDS011;21913;52.456;13.634;2023-04-03T19:12:29;3.33;;;0.75;;
25155;SDS011;21913;52.456;13.634;2023-04-03T19:17:31;3.05;;;1.00;;
25155;SDS011;21913;52.456;13.634;2023-04-03T19:22:32;3.20;;;1.20;;
25155;SDS011;21913;52.456;13.634;2023-04-03T19:27:35;4.55;;;0.95;;
25155;SDS011;21913;52.456;13.634;2023-04-03T19:32:37;3.15;;;1.35;;
25155;SDS011;21913;52.456;13.634;2023-04-03T19:37:38;4.25;;;1.80;;
25155;SDS011;21913;52.456;13.634;2023-04-03T19:42:40;2.90;;;1.52;;
25155;SDS011;21913;52.456;13.634;2023-04-03T19:47:41;4.65;;;1.40;;
25155;SDS011;21913;52.456;13.634;2023-04-03T19:52:43;4.60;;;1.50;;
25155;SDS011;21913;52.456;13.634;2023-04-03T19:57:44;4.05;;;1.30;;
25155;SDS011;21913;52.456;13.634;2023-04-03T20:02:46;3.30;;;1.67;;
25155;SDS011;21913;52.456;13.634;2023-04-03T20:07:47;6.43;;;1.60;;
25155;SDS011;21913;52.456;13.634;2023-04-03T20:12:49;3.38;;;1.50;;
25155;SDS011;21913;52.456;13.634;2023-04-03T20:17:50;4.18;;;1.60;;
25155;SDS011;21913;52.456;13.634;2023-04-03T20:22:52;2.53;;;1.50;;
25155;SDS011;21913;52.456;13.634;2023-04-03T20:27:53;3.28;;;1.58;;
25155;SDS011;21913;52.456;13.634;2023-04-03T20:32:55;3.28;;;1.38;;
25155;SDS011;21913;52.456;13.634;2023-04-03T20:37:56;3.92;;;1.60;;
25155;SDS011;21913;52.456;13.634;2023-04-03T20:42:59;4.13;;;1.70;;
25155;SDS011;21913;52.456;13.634;2023-04-03T20:48:01;2.05;;;1.20;;
25155;SDS011;21913;52.456;13.634;2023-04-03T20:53:03;3.05;;;1.42;;
25155;SDS011;21913;52.456;13.634;2023-04-03T20:58:04;3.08;;;1.48;;
25155;SDS011;21913;52.456;13.634;2023-04-03T21:03:06;3.55;;;1.50;;
25155;SDS011;21913;52.456;13.634;2023-04-03T21:19:25;2.33;;;1.38;;
25155;SDS011;21913;52.456;13.634;2023-04-03T21:24:26;2.85;;;1.58;;
25155;SDS011;21913;52.456;13.634;2023-04-03T21:29:28;1.95;;;1.13;;
25155;SDS011;21913;52.456;13.634;2023-04-03T21:34:30;2.63;;;1.20;;
25155;SDS011;21913;52.456;13.634;2023-04-03T21:39:32;4.75;;;1.48;;
25155;SDS011;21913;52.456;13.634;2023-04-03T21:44:33;3.83;;;1.50;;
25155;SDS011;21913;52.456;13.634;2023-04-03T21:49:35;3.28;;;1.30;;
25155;SDS011;21913;52.456;13.634;2023-04-03T21:54:36;2.53;;;1.25;;
25155;SDS011;21913;52.456;13.634;2023-04-03T21:59:38;2.50;;;1.23;;
25155;SDS011;21913;52.456;13.634;2023-04-03T22:04:39;2.30;;;1.38;;
25155;SDS011;21913;52.456;13.634;2023-04-03T22:09:41;2.47;;;1.38;;
25155;SDS011;21913;52.456;13.634;2023-04-03T22:14:42;2.45;;;1.10;;
25155;SDS011;21913;52.456;13.634;2023-04-03T22:19:44;1.88;;;1.02;;
25155;SDS011;21913;52.456;13.634;2023-04-03T22:24:45;2.80;;;1.20;;
25155;SDS011;21913;52.456;13.634;2023-04-03T22:29:46;3.95;;;1.40;;
25155;SDS011;21913;52.456;13.634;2023-04-03T22:34:48;3.53;;;1.38;;
25155;SDS011;21913;52.456;13.634;2023-04-03T22:39:49;2.25;;;1.10;;
25155;SDS011;21913;52.456;13.634;2023-04-03T22:44:51;7.70;;;1.20;;
25155;SDS011;21913;52.456;13.634;2023-04-03T22:49:52;2.70;;;1.30;;
25155;SDS011;21913;52.456;13.634;2023-04-03T22:54:54;2.70;;;1.30;;
25155;SDS011;21913;52.456;13.634;2023-04-03T22:59:56;2.55;;;1.30;;
25155;SDS011;21913;52.456;13.634;2023-04-03T23:04:57;2.35;;;1.25;;
25155;SDS011;21913;52.456;13.634;2023-04-03T23:09:58;2.53;;;1.17;;
25155;SDS011;21913;52.456;13.634;2023-04-03T23:15:00;2.30;;;1.20;;
25155;SDS011;21913;52.456;13.634;2023-04-03T23:20:02;2.72;;;1.10;;
25155;SDS011;21913;52.456;13.634;2023-04-03T23:25:04;2.28;;;1.38;;
25155;SDS011;21913;52.456;13.634;2023-04-03T23:30:06;3.03;;;1.30;;
25155;SDS011;21913;52.456;13.634;2023-04-03T23:35:08;1.98;;;1.10;;
25155;SDS011;21913;52.456;13.634;2023-04-03T23:40:09;1.70;;;1.10;;
25155;SDS011;21913;52.456;13.634;2023-04-03T23:45:11;1.90;;;1.27;;
25155;SDS011;21913;52.456;13.634;2023-04-03T23:50:13;3.60;;;1.25;;
25155;SDS011;21913;52.456;13.634;2023-04-03T23:55:14;1.75;;;1.20;;
